Time;durP1;ratioP1;P1;durP2;ratioP2;P2;SDS_P1;SDS_P2;PMS_P1;PMS_P2;Temp;Humidity;BMP_temperature;BMP_pressure;BME280_temperature;BME280_humidity;BME280_pressure;Samples;Min_cycle;Max_cycle;Signal;HPM_P1;HPM_P2
2022/10/28 00:01:05;;;;;;;12.63;9.13;;;23.30;53.70;;;;;;4972877;28;20046;-66
2022/10/28 00:03:46;;;;;;;18.23;9.23;;;23.30;53.70;;;;;;4972596;28;20046;-66
2022/10/28 00:06:17;;;;;;;13.40;9.93;;;23.30;53.70;;;;;;4972791;28;20483;-66
2022/10/28 00:08:52;;;;;;;12.07;8.75;;;23.30;53.70;;;;;;4956415;28;20135;-66
2022/10/28 00:14:52;;;;;;;11.55;8.95;;;23.30;53.70;;;;;;4973805;28;20050;-66
2022/10/28 00:17:19;;;;;;;10.55;8.35;;;23.30;53.70;;;;;;4973495;28;20066;-66
2022/10/28 00:19:51;;;;;;;13.43;9.13;;;23.30;53.70;;;;;;4972076;28;20043;-66
2022/10/28 00:22:18;;;;;;;11.82;8.15;;;23.30;53.70;;;;;;4956363;28;20395;-63
2022/10/28 00:25:49;;;;;;;11.30;8.48;;;23.30;53.80;;;;;;4972583;28;20047;-66
2022/10/28 00:28:16;;;;;;;11.38;9.60;;;23.20;53.70;;;;;;4971985;28;20053;-66
2022/10/28 00:30:51;;;;;;;9.50;7.95;;;23.20;53.80;;;;;;4973283;28;20078;-66
2022/10/28 00:33:18;;;;;;;11.52;8.27;;;23.20;53.80;;;;;;4955683;28;20478;-66
2022/10/28 00:35:53;;;;;;;11.20;8.45;;;23.20;53.80;;;;;;4973245;28;20054;-66
2022/10/28 00:42:02;;;;;;;11.32;8.30;;;23.30;53.90;;;;;;4971969;28;20077;-62
2022/10/28 00:44:58;;;;;;;10.50;8.25;;;23.20;53.80;;;;;;4970472;28;20471;-67
2022/10/28 00:47:44;;;;;;;12.75;7.80;;;23.20;53.70;;;;;;4957771;28;20050;-64
2022/10/28 00:50:19;;;;;;;11.32;8.98;;;23.30;53.70;;;;;;4976976;28;20051;-62
2022/10/28 00:52:52;;;;;;;10.32;8.30;;;23.30;53.70;;;;;;4975700;28;20053;-65
2022/10/28 00:59:02;;;;;;;10.03;8.23;;;23.30;53.70;;;;;;4976263;28;20127;-65
2022/10/28 01:01:32;;;;;;;12.13;7.97;;;23.30;53.70;;;;;;4976603;28;20047;-64
2022/10/28 01:04:00;;;;;;;9.68;7.20;;;23.30;53.70;;;;;;4977768;28;20057;-64
2022/10/28 01:06:33;;;;;;;11.85;7.90;;;23.20;53.60;;;;;;4976798;28;20046;-64
2022/10/28 01:09:06;;;;;;;10.30;8.27;;;23.30;53.70;;;;;;4976450;28;20609;-65
2022/10/28 01:15:51;;;;;;;12.68;8.18;;;23.30;53.70;;;;;;4976572;28;20462;-64
2022/10/28 01:18:48;;;;;;;11.27;8.20;;;23.20;53.60;;;;;;4962266;28;20391;-61
2022/10/28 01:21:54;;;;;;;12.48;8.38;;;23.20;53.60;;;;;;4976196;28;20053;-65
2022/10/28 01:28:36;;;;;;;10.15;7.68;;;23.20;53.60;;;;;;4962215;28;20093;-65
2022/10/28 01:31:40;;;;;;;12.35;8.63;;;23.20;53.60;;;;;;4976024;28;20042;-65
2022/10/28 01:34:32;;;;;;;11.05;8.02;;;23.20;53.60;;;;;;4974533;28;20050;-65
2022/10/28 01:37:27;;;;;;;11.23;7.63;;;23.20;53.60;;;;;;4958322;28;20057;-65
2022/10/28 01:40:14;;;;;;;8.93;7.20;;;23.20;53.60;;;;;;4959462;28;20051;-64
2022/10/28 01:42:53;;;;;;;8.23;7.05;;;23.20;53.60;;;;;;4975753;28;20085;-65
2022/10/28 01:45:29;;;;;;;9.30;6.80;;;23.20;53.60;;;;;;4974541;28;20078;-65
2022/10/28 01:51:54;;;;;;;9.82;6.75;;;23.20;53.70;;;;;;4993007;28;20541;-65
2022/10/28 01:54:25;;;;;;;8.75;6.55;;;23.20;53.70;;;;;;4995990;28;20046;-60
2022/10/28 01:56:55;;;;;;;9.07;6.85;;;23.20;53.70;;;;;;4995072;28;20050;-65
2022/10/28 01:59:25;;;;;;;9.95;6.70;;;23.20;53.80;;;;;;4994721;28;20054;-62
2022/10/28 02:01:53;;;;;;;8.25;6.60;;;23.20;53.70;;;;;;4994658;28;20052;-66
2022/10/28 02:07:53;;;;;;;8.48;6.78;;;23.20;53.80;;;;;;4994290;28;20133;-65
2022/10/28 02:10:23;;;;;;;9.32;7.40;;;23.20;53.70;;;;;;4993881;28;20046;-65
2022/10/28 02:12:55;;;;;;;9.50;7.15;;;23.20;53.60;;;;;;4983726;28;20054;-64
2022/10/28 02:15:46;;;;;;;9.13;6.80;;;23.20;53.60;;;;;;4974495;28;20046;-61
2022/10/28 02:22:44;;;;;;;7.85;6.35;;;23.20;53.60;;;;;;4975410;28;20045;-65
2022/10/28 02:25:39;;;;;;;7.38;6.30;;;23.20;53.50;;;;;;4974844;28;20047;-65
2022/10/28 02:28:17;;;;;;;8.00;6.45;;;23.20;53.60;;;;;;4975274;28;20061;-65
2022/10/28 02:31:01;;;;;;;7.57;6.47;;;23.20;53.60;;;;;;4975214;28;20049;-65
2022/10/28 02:33:32;;;;;;;7.60;6.00;;;23.20;53.50;;;;;;4974277;28;20051;-66
2022/10/28 02:39:37;;;;;;;6.68;5.95;;;23.20;53.50;;;;;;4975228;28;20054;-66
2022/10/28 02:42:14;;;;;;;9.23;6.70;;;23.20;53.50;;;;;;4974505;28;20046;-65
2022/10/28 02:44:55;;;;;;;8.60;6.65;;;23.20;53.50;;;;;;4974625;28;20042;-66
2022/10/28 02:47:26;;;;;;;7.57;5.88;;;23.20;53.50;;;;;;4974650;28;20043;-66
2022/10/28 02:53:52;;;;;;;8.15;6.00;;;23.20;53.50;;;;;;4974328;28;20043;-65
2022/10/28 02:56:20;;;;;;;6.63;5.82;;;23.20;53.50;;;;;;4974704;28;20057;-65
2022/10/28 02:58:48;;;;;;;8.75;6.47;;;23.20;53.50;;;;;;4974817;28;20053;-65
2022/10/28 03:01:17;;;;;;;7.18;5.88;;;23.20;53.50;;;;;;4974117;28;20054;-65
2022/10/28 03:07:35;;;;;;;;;;;23.20;53.50;;;;;;4974526;28;20054;-65
2022/10/28 03:10:03;;;;;;;8.77;6.57;;;23.20;53.50;;;;;;4973180;28;19924;-61
2022/10/28 03:12:30;;;;;;;6.95;5.82;;;23.20;53.50;;;;;;4973421;28;20047;-65
2022/10/28 03:14:57;;;;;;;7.22;6.18;;;23.20;53.50;;;;;;4956772;28;20054;-64
2022/10/28 03:17:24;;;;;;;9.32;6.55;;;23.20;53.60;;;;;;4956963;28;20188;-65
2022/10/28 03:23:15;;;;;;;5.95;4.97;;;23.10;53.60;;;;;;4974198;28;20126;-60
2022/10/28 03:25:42;;;;;;;6.45;5.32;;;23.10;53.60;;;;;;4956548;28;20051;-65
2022/10/28 03:28:09;;;;;;;6.82;6.05;;;23.10;53.60;;;;;;4973582;28;20057;-65
2022/10/28 03:30:36;;;;;;;5.63;4.97;;;23.10;53.60;;;;;;4973067;28;20685;-65
2022/10/28 03:33:51;;;;;;;7.05;5.22;;;23.10;53.50;;;;;;4973353;28;20057;-65
2022/10/28 03:36:18;;;;;;;7.10;5.68;;;23.20;53.50;;;;;;4973528;28;20061;-65
2022/10/28 03:38:45;;;;;;;8.23;5.85;;;23.20;53.50;;;;;;4973018;28;20046;-61
2022/10/28 03:41:15;;;;;;;6.47;5.57;;;23.20;53.40;;;;;;4973813;28;20058;-62
2022/10/28 03:43:42;;;;;;;6.85;5.50;;;23.10;53.40;;;;;;4944644;28;20051;-65
2022/10/28 03:46:10;;;;;;;5.57;4.90;;;23.20;53.40;;;;;;4954169;28;20368;-66
2022/10/28 03:52:06;;;;;;;6.70;5.43;;;23.20;53.40;;;;;;4974083;28;20050;-66
2022/10/28 03:54:33;;;;;;;5.97;5.38;;;23.10;53.30;;;;;;4973383;28;20057;-61
2022/10/28 03:57:22;;;;;;;5.82;4.90;;;23.20;53.40;;;;;;4956348;28;20046;-66
2022/10/28 03:59:49;;;;;;;5.22;4.65;;;23.10;53.30;;;;;;4973536;28;20129;-66
2022/10/28 04:02:16;;;;;;;6.35;4.93;;;23.20;53.40;;;;;;4972676;28;20051;-66
2022/10/28 04:04:44;;;;;;;5.60;4.97;;;23.10;53.30;;;;;;4974455;28;20125;-61
2022/10/28 04:08:16;;;;;;;6.68;5.90;;;23.10;53.40;;;;;;4973082;28;20047;-65
2022/10/28 04:10:51;;;;;;;6.20;5.10;;;23.10;53.30;;;;;;4955199;29;20047;-65
2022/10/28 04:13:18;;;;;;;6.00;5.28;;;23.10;53.40;;;;;;4955166;28;20062;-61
2022/10/28 04:15:45;;;;;;;6.57;4.90;;;23.20;53.40;;;;;;4953978;29;20050;-65
2022/10/28 04:18:13;;;;;;;5.88;4.78;;;23.10;53.30;;;;;;4936541;29;20731;-65
2022/10/28 04:24:39;;;;;;;5.00;4.50;;;23.10;53.40;;;;;;4978263;28;20470;-65
2022/10/28 04:27:06;;;;;;;5.88;5.18;;;23.10;53.30;;;;;;4979738;28;20050;-64
2022/10/28 04:29:33;;;;;;;6.70;4.97;;;23.10;53.30;;;;;;4981806;28;20053;-65
2022/10/28 04:32:01;;;;;;;6.53;4.97;;;23.20;53.40;;;;;;4982749;28;20039;-65
2022/10/28 04:37:44;;;;;;;5.45;4.88;;;23.10;53.30;;;;;;4980331;28;20042;-61
2022/10/28 04:40:11;;;;;;;5.40;4.53;;;23.10;53.20;;;;;;4987938;28;20049;-64
2022/10/28 04:42:38;;;;;;;6.80;4.60;;;23.10;53.10;;;;;;4991637;28;20061;-65
2022/10/28 04:45:06;;;;;;;5.28;4.40;;;23.10;53.00;;;;;;4992942;28;20044;-65
2022/10/28 04:51:14;;;;;;;5.00;4.15;;;23.10;52.90;;;;;;4989781;28;20097;-61
2022/10/28 04:53:41;;;;;;;5.20;4.70;;;23.10;52.80;;;;;;4958366;28;20062;-65
2022/10/28 04:56:14;;;;;;;5.72;4.47;;;23.10;52.90;;;;;;4967204;28;20031;-65
2022/10/28 04:58:41;;;;;;;5.05;4.57;;;23.10;52.80;;;;;;4970666;28;20491;-65
2022/10/28 05:04:48;;;;;;;4.35;3.92;;;23.10;52.70;;;;;;4973405;28;20047;-65
2022/10/28 05:07:15;;;;;;;4.53;3.78;;;23.00;52.60;;;;;;4962344;28;20049;-61
2022/10/28 05:09:48;;;;;;;4.53;3.90;;;23.00;52.60;;;;;;4986560;28;20046;-61
2022/10/28 05:12:15;;;;;;;4.85;4.00;;;23.00;52.50;;;;;;4986275;28;20042;-64
2022/10/28 05:27:51;;;;;;;5.75;4.30;;;23.00;52.40;;;;;;4972037;28;20094;-65
2022/10/28 05:30:19;;;;;;;4.05;3.65;;;23.00;52.50;;;;;;4968840;28;20601;-63
2022/10/28 05:33:00;;;;;;;4.22;3.70;;;23.00;52.60;;;;;;4962022;28;20043;-62
2022/10/28 05:35:29;;;;;;;4.80;4.18;;;23.00;52.60;;;;;;4979079;28;20057;-59
2022/10/28 05:37:57;;;;;;;4.80;4.28;;;23.00;52.60;;;;;;4963645;28;20047;-61
2022/10/28 05:40:24;;;;;;;5.22;4.40;;;23.10;52.70;;;;;;4980359;28;20047;-65
2022/10/28 05:42:51;;;;;;;4.20;3.80;;;23.10;52.70;;;;;;4977258;28;20050;-61
2022/10/28 05:45:19;;;;;;;5.85;3.63;;;23.10;52.70;;;;;;4970643;28;20066;-64
2022/10/28 05:47:47;;;;;;;4.63;3.65;;;23.10;52.40;;;;;;4980168;28;20414;-64
2022/10/28 05:50:16;;;;;;;3.97;3.58;;;23.10;52.20;;;;;;4978657;28;20380;-64
2022/10/28 05:52:53;;;;;;;5.32;4.80;;;23.10;52.10;;;;;;4976069;28;20416;-61
2022/10/28 05:55:21;;;;;;;4.60;3.28;;;23.10;51.90;;;;;;4979766;28;20368;-64
2022/10/28 05:57:50;;;;;;;4.78;3.50;;;23.10;51.80;;;;;;4979666;28;20054;-60
2022/10/28 06:00:26;;;;;;;3.58;3.00;;;23.10;51.70;;;;;;4976652;28;20078;-64
2022/10/28 06:03:08;;;;;;;3.85;3.40;;;23.10;51.60;;;;;;4979035;28;20058;-62
2022/10/28 06:05:38;;;;;;;3.53;3.20;;;23.20;51.50;;;;;;4978601;28;20578;-61
2022/10/28 06:08:05;;;;;;;4.20;3.35;;;23.10;51.40;;;;;;4979225;28;20507;-61
2022/10/28 06:10:32;;;;;;;4.78;3.33;;;23.10;51.40;;;;;;4971572;28;20085;-65
2022/10/28 06:12:59;;;;;;;6.28;4.32;;;23.20;51.40;;;;;;4979158;28;20400;-61
2022/10/28 06:15:26;;;;;;;3.33;3.05;;;23.20;51.40;;;;;;4979458;28;20055;-61
2022/10/28 06:17:54;;;;;;;5.78;3.70;;;23.20;51.50;;;;;;4962432;28;20046;-62
2022/10/28 06:20:21;;;;;;;3.42;3.13;;;23.20;51.80;;;;;;4978913;28;20051;-64
2022/10/28 06:22:49;;;;;;;4.50;3.45;;;23.20;51.90;;;;;;4979066;28;20484;-62
2022/10/28 06:25:18;;;;;;;4.30;3.65;;;23.20;51.90;;;;;;4962018;28;20483;-63
2022/10/28 06:27:50;;;;;;;3.83;3.03;;;23.20;51.90;;;;;;4978718;28;20049;-62
2022/10/28 06:31:13;;;;;;;3.08;2.70;;;23.20;51.80;;;;;;4961683;28;20051;-62
2022/10/28 07:19:13;;;;;;;2.90;2.47;;;23.50;51.20;;;;;;5026610;23;20512;-62
2022/10/28 07:21:47;;;;;;;4.72;3.25;;;23.60;51.40;;;;;;4965637;28;20097;-65
2022/10/28 07:24:14;;;;;;;4.55;2.80;;;23.60;51.50;;;;;;4939449;29;20047;-61
2022/10/28 07:26:41;;;;;;;3.85;2.70;;;23.60;51.50;;;;;;4939212;29;20052;-61
2022/10/28 07:29:08;;;;;;;3.70;3.33;;;23.70;51.60;;;;;;4939174;29;20055;-61
2022/10/28 07:31:35;;;;;;;4.75;3.17;;;23.70;51.50;;;;;;4939899;29;20380;-59
2022/10/28 07:34:02;;;;;;;5.63;2.78;;;23.80;51.40;;;;;;4937891;29;20052;-62
2022/10/28 07:36:29;;;;;;;3.78;3.08;;;23.80;51.40;;;;;;4939133;29;20052;-60
2022/10/28 07:38:56;;;;;;;5.80;3.20;;;23.90;51.20;;;;;;4939101;29;20063;-61
2022/10/28 07:41:23;;;;;;;3.50;3.00;;;23.90;50.90;;;;;;4939222;29;20052;-62
2022/10/28 07:54:15;;;;;;;4.68;3.28;;;24.10;50.50;;;;;;5435995;23;20051;-62
2022/10/28 07:56:42;;;;;;;4.13;3.05;;;24.10;50.40;;;;;;4977265;28;20051;-65
2022/10/28 07:59:09;;;;;;;4.90;2.72;;;24.20;50.30;;;;;;4967283;28;20054;-65
2022/10/28 08:01:36;;;;;;;5.88;3.15;;;24.20;50.30;;;;;;4958121;28;20054;-64
2022/10/28 08:04:04;;;;;;;4.07;2.70;;;24.30;50.30;;;;;;4957598;28;20043;-64
2022/10/28 08:06:33;;;;;;;4.50;3.30;;;24.30;50.70;;;;;;4958104;28;20519;-62
2022/10/28 08:09:00;;;;;;;5.77;3.07;;;24.30;50.10;;;;;;4957423;28;20048;-63
2022/10/28 08:11:27;;;;;;;5.57;3.40;;;24.40;50.00;;;;;;4957551;28;20110;-62
2022/10/28 08:13:55;;;;;;;4.50;3.40;;;24.40;50.50;;;;;;4957542;28;20051;-64
2022/10/28 08:16:22;;;;;;;5.35;3.45;;;24.40;50.00;;;;;;4956063;29;20062;-61
2022/10/28 08:18:49;;;;;;;3.30;2.92;;;24.50;50.00;;;;;;4957487;28;20055;-65
2022/10/28 08:21:16;;;;;;;6.10;2.88;;;24.50;49.80;;;;;;4958044;28;20048;-61
2022/10/28 08:23:45;;;;;;;4.55;3.13;;;24.50;49.70;;;;;;4956105;29;20057;-62
2022/10/28 08:26:45;;;;;;;6.57;3.53;;;24.50;49.60;;;;;;4956807;28;20119;-61
2022/10/28 08:38:07;;;;;;;4.32;3.13;;;24.70;49.50;;;;;;5083307;23;20086;-59
2022/10/28 08:41:04;;;;;;;4.57;3.30;;;24.70;49.60;;;;;;4955908;29;20141;-64
2022/10/28 08:44:11;;;;;;;7.82;4.07;;;24.80;49.70;;;;;;4956940;28;20497;-66
2022/10/28 08:47:06;;;;;;;4.35;3.10;;;24.80;49.70;;;;;;4956058;28;20058;-61
2022/10/28 08:49:38;;;;;;;5.78;3.67;;;24.90;49.60;;;;;;4956970;28;20601;-62
2022/10/28 08:52:23;;;;;;;9.48;3.60;;;24.90;49.40;;;;;;4956923;28;20568;-61
2022/10/28 08:55:55;;;;;;;6.55;3.55;;;24.90;49.20;;;;;;4948711;28;20095;-63
2022/10/28 08:58:33;;;;;;;4.82;3.30;;;24.90;49.10;;;;;;4952811;28;20058;-60
2022/10/28 09:01:02;;;;;;;5.78;4.03;;;25.00;49.00;;;;;;4956852;28;20047;-62
2022/10/28 09:04:22;;;;;;;7.28;3.70;;;25.00;49.00;;;;;;4956120;28;20079;-62
2022/10/28 09:07:21;;;;;;;6.82;3.63;;;25.00;48.80;;;;;;4953534;28;20051;-61
2022/10/28 09:09:50;;;;;;;8.50;4.30;;;25.10;48.70;;;;;;4952137;28;20059;-65
2022/10/28 09:16:30;;;;;;;8.25;4.57;;;25.10;48.40;;;;;;4960409;29;20118;-65
2022/10/28 09:19:03;;;;;;;5.72;4.10;;;25.10;48.50;;;;;;4960606;28;20500;-65
2022/10/28 09:21:38;;;;;;;4.65;3.72;;;25.10;48.40;;;;;;4960257;28;20061;-62
2022/10/28 09:24:49;;;;;;;9.07;4.05;;;25.10;48.30;;;;;;4959490;28;20047;-60
2022/10/28 09:27:42;;;;;;;12.95;4.88;;;25.20;48.30;;;;;;4949649;28;20050;-65
2022/10/28 09:30:29;;;;;;;13.90;5.10;;;25.20;48.30;;;;;;4958936;29;20051;-59
2022/10/28 09:33:36;;;;;;;12.65;4.40;;;25.20;48.40;;;;;;4960322;28;20059;-59
2022/10/28 09:36:11;;;;;;;9.63;5.32;;;25.30;48.40;;;;;;4960496;28;20051;-63
2022/10/28 09:38:39;;;;;;;8.80;4.45;;;25.30;48.30;;;;;;4960872;28;20047;-59
2022/10/28 09:41:21;;;;;;;8.50;4.82;;;25.30;48.20;;;;;;4960467;28;20091;-61
2022/10/28 09:43:53;;;;;;;7.85;4.70;;;25.40;48.20;;;;;;4960174;28;20438;-59
2022/10/28 09:46:23;;;;;;;9.77;4.63;;;25.40;48.10;;;;;;4960242;28;20047;-58
2022/10/28 09:48:54;;;;;;;8.90;5.07;;;25.40;48.10;;;;;;4960017;28;20051;-60
2022/10/28 09:58:06;;;;;;;9.27;4.97;;;25.50;48.00;;;;;;5085873;23;20038;-63
2022/10/28 10:00:33;;;;;;;7.95;5.18;;;25.50;48.00;;;;;;4995534;28;20061;-64
2022/10/28 10:03:00;;;;;;;11.10;5.07;;;25.50;48.10;;;;;;4979732;28;20378;-62
2022/10/28 10:05:29;;;;;;;9.85;5.03;;;25.50;48.10;;;;;;4979233;28;20129;-62
2022/10/28 10:08:02;;;;;;;10.50;6.43;;;25.50;48.00;;;;;;4979336;28;20554;-63
2022/10/28 10:10:46;;;;;;;10.55;5.05;;;25.50;47.90;;;;;;4977827;28;20058;-61
2022/10/28 10:13:16;;;;;;;7.47;5.32;;;25.50;48.30;;;;;;4979295;28;20042;-61
2022/10/28 10:15:47;;;;;;;9.63;6.63;;;25.60;47.80;;;;;;4979005;28;20054;-61
2022/10/28 10:18:29;;;;;;;9.48;5.80;;;25.50;47.80;;;;;;4978047;28;20050;-61
2022/10/28 10:21:00;;;;;;;8.13;5.45;;;25.50;47.80;;;;;;4972040;28;20051;-62
2022/10/28 10:23:30;;;;;;;13.85;6.78;;;25.50;47.80;;;;;;4978513;28;20054;-64
2022/10/28 10:26:04;;;;;;;12.80;6.93;;;25.50;47.80;;;;;;4978946;28;20142;-64
2022/10/28 10:28:46;;;;;;;7.67;5.63;;;25.50;47.80;;;;;;4979265;28;20046;-65
2022/10/28 10:40:18;;;;;;;8.13;5.90;;;25.40;47.90;;;;;;5140339;23;20057;-62
2022/10/28 10:42:46;;;;;;;8.70;6.40;;;25.40;47.90;;;;;;4976104;28;20389;-61
2022/10/28 10:53:25;;;;;;;11.00;6.82;;;25.40;48.10;;;;;;6130172;23;20018;-60
2022/10/28 10:55:54;;;;;;;;;;;25.40;48.10;;;;;;4920190;29;20401;-61
2022/10/28 11:05:55;;;;;;;10.50;7.20;;;25.40;48.40;;;;;;5651303;23;20507;-61
2022/10/28 11:08:43;;;;;;;10.75;7.95;;;25.40;48.40;;;;;;4973733;28;20061;-60
2022/10/28 11:11:13;;;;;;;11.77;7.30;;;25.50;48.50;;;;;;4959025;28;20067;-64
2022/10/28 11:14:52;;;;;;;10.50;7.38;;;25.50;48.40;;;;;;4952779;28;20055;-64
2022/10/28 11:17:24;;;;;;;11.45;7.38;;;25.50;48.60;;;;;;4954635;28;20043;-63
2022/10/28 11:30:13;;;;;;;10.90;6.97;;;25.60;49.10;;;;;;6032480;23;20022;-61
2022/10/28 11:33:00;;;;;;;10.20;8.05;;;25.60;49.00;;;;;;4958036;28;20058;-62
2022/10/28 11:36:01;;;;;;;10.27;7.22;;;25.60;49.00;;;;;;4957656;28;20051;-60
2022/10/28 11:39:08;;;;;;;11.13;7.55;;;25.60;48.90;;;;;;4958225;28;20051;-60
2022/10/28 11:51:59;;;;;;;13.35;7.38;;;25.60;49.10;;;;;;5301234;23;20054;-62
2022/10/28 11:54:53;;;;;;;14.00;8.38;;;25.60;49.20;;;;;;4977571;28;20145;-61
2022/10/28 11:57:47;;;;;;;11.75;7.72;;;25.70;49.20;;;;;;4976772;28;20049;-61
2022/10/28 12:01:34;;;;;;;14.27;7.80;;;25.70;49.30;;;;;;4970651;28;20043;-61
2022/10/28 12:08:26;;;;;;;20.20;8.52;;;25.80;49.40;;;;;;4974816;28;20046;-60
2022/10/28 12:15:11;;;;;;;11.95;8.43;;;25.80;48.90;;;;;;4958216;28;20134;-61
2022/10/28 12:18:07;;;;;;;14.73;8.85;;;25.80;48.80;;;;;;4957945;28;20051;-60
2022/10/28 12:20:55;;;;;;;12.63;8.18;;;25.70;48.80;;;;;;4956971;28;20041;-60
2022/10/28 12:23:55;;;;;;;10.68;8.23;;;25.70;48.70;;;;;;4966390;28;20052;-64
2022/10/28 12:26:32;;;;;;;11.95;8.10;;;25.70;48.70;;;;;;4974778;28;20057;-63
2022/10/28 12:32:42;;;;;;;12.52;8.32;;;25.70;48.80;;;;;;4970526;28;20041;-63
2022/10/28 12:35:53;;;;;;;11.67;8.53;;;25.70;48.80;;;;;;4972259;28;20396;-59
2022/10/28 12:38:39;;;;;;;;;;;25.60;48.90;;;;;;4975085;28;20050;-62
2022/10/28 12:45:02;;;;;;;12.43;9.18;;;25.60;49.10;;;;;;5846514;23;20045;-60
2022/10/28 12:47:54;;;;;;;12.73;8.65;;;25.60;49.30;;;;;;4975970;28;20070;-60
2022/10/28 12:50:47;;;;;;;10.35;9.23;;;25.50;49.50;;;;;;4977309;28;20074;-62
2022/10/28 12:57:27;;;;;;;11.32;8.80;;;25.50;50.50;;;;;;4957729;28;20043;-62
2022/10/28 13:00:43;;;;;;;13.23;9.75;;;25.50;51.10;;;;;;4964473;28;20400;-60
2022/10/28 13:03:14;;;;;;;11.48;9.05;;;25.50;51.10;;;;;;4963252;28;20043;-60
2022/10/28 13:06:07;;;;;;;14.23;9.15;;;25.50;51.10;;;;;;4957248;28;20576;-63
2022/10/28 13:08:59;;;;;;;12.70;8.93;;;25.50;51.00;;;;;;4957144;28;20104;-63
2022/10/28 13:11:49;;;;;;;12.35;8.70;;;25.40;50.90;;;;;;4986082;28;20053;-62
2022/10/28 13:14:23;;;;;;;;;;;25.50;51.00;;;;;;4977325;28;20403;-63
2022/10/28 13:17:23;;;;;;;13.32;10.02;;;25.40;50.90;;;;;;4976613;28;19922;-63
2022/10/28 13:20:26;;;;;;;9.38;8.05;;;25.50;50.90;;;;;;4975293;28;20042;-63
2022/10/28 13:23:08;;;;;;;14.73;8.68;;;25.50;50.80;;;;;;4974912;28;20046;-59
2022/10/28 13:26:04;;;;;;;11.75;8.77;;;25.50;50.70;;;;;;4975835;28;20488;-62
2022/10/28 13:28:43;;;;;;;12.48;9.20;;;25.40;50.60;;;;;;4976500;28;20051;-62
2022/10/28 13:31:11;;;;;;;11.88;9.32;;;25.40;50.60;;;;;;4976427;28;20057;-63
2022/10/28 13:33:45;;;;;;;10.88;9.10;;;25.40;50.50;;;;;;4975039;28;20050;-62
2022/10/28 13:36:24;;;;;;;12.45;9.32;;;25.40;50.50;;;;;;4975768;28;20456;-62
2022/10/28 13:39:00;;;;;;;10.85;9.45;;;25.40;50.50;;;;;;4976273;28;20043;-63
2022/10/28 13:41:36;;;;;;;11.05;9.25;;;25.40;50.50;;;;;;4976096;28;20510;-60
2022/10/28 13:44:25;;;;;;;12.00;9.15;;;25.40;50.50;;;;;;4974924;28;20049;-60
2022/10/28 13:47:20;;;;;;;13.27;10.20;;;25.40;50.50;;;;;;4974793;28;20078;-60
2022/10/28 13:50:12;;;;;;;10.50;9.40;;;25.40;50.60;;;;;;4975617;28;20059;-63
2022/10/28 13:52:44;;;;;;;16.35;9.63;;;25.30;51.00;;;;;;4975953;28;20139;-63
2022/10/28 13:55:26;;;;;;;13.80;10.23;;;25.40;51.50;;;;;;4973273;28;20043;-60
2022/10/28 13:58:03;;;;;;;12.70;10.00;;;25.30;51.70;;;;;;4979696;28;20051;-63
2022/10/28 14:00:35;;;;;;;14.95;10.45;;;25.30;51.80;;;;;;4980188;28;20073;-63
2022/10/28 14:03:14;;;;;;;12.90;9.30;;;25.30;52.00;;;;;;4978374;28;20054;-63
2022/10/28 14:05:56;;;;;;;10.45;9.10;;;25.30;52.80;;;;;;4979946;28;20050;-63
2022/10/28 14:08:40;;;;;;;11.93;9.50;;;25.30;53.30;;;;;;4980360;28;20047;-63
2022/10/28 14:11:22;;;;;;;12.43;9.18;;;25.30;53.30;;;;;;4979649;28;20065;-63
2022/10/28 14:13:53;;;;;;;11.93;9.43;;;25.30;53.20;;;;;;4979938;28;20047;-63
2022/10/28 14:16:29;;;;;;;9.65;7.90;;;25.30;53.10;;;;;;4979977;28;20058;-62
2022/10/28 14:19:16;;;;;;;10.45;8.82;;;25.30;52.90;;;;;;4978707;28;20047;-62
2022/10/28 14:22:06;;;;;;;11.48;8.93;;;25.30;52.70;;;;;;4979869;28;20127;-63
2022/10/28 14:24:36;;;;;;;10.23;9.10;;;25.30;52.60;;;;;;4980629;28;20046;-63
2022/10/28 14:27:29;;;;;;;9.82;8.70;;;25.20;52.40;;;;;;4980299;28;20047;-63
2022/10/28 14:30:13;;;;;;;10.50;8.63;;;25.20;52.20;;;;;;4979233;28;20423;-63
2022/10/28 14:32:59;;;;;;;14.25;9.60;;;25.20;52.10;;;;;;4979979;28;20058;-63
2022/10/28 14:35:32;;;;;;;13.95;8.77;;;25.20;52.00;;;;;;4980556;28;20414;-63
2022/10/28 14:38:38;;;;;;;11.65;9.00;;;25.20;52.00;;;;;;4980733;28;20073;-63
2022/10/28 14:41:30;;;;;;;8.82;7.93;;;25.20;51.90;;;;;;4979794;28;20511;-63
2022/10/28 14:44:17;;;;;;;9.25;8.13;;;25.20;51.90;;;;;;4979129;28;20057;-63
2022/10/28 14:47:11;;;;;;;11.32;8.68;;;25.20;51.90;;;;;;4979980;28;20047;-63
2022/10/28 14:49:39;;;;;;;10.93;8.48;;;25.20;51.80;;;;;;4978878;28;20514;-63
2022/10/28 14:52:17;;;;;;;12.15;9.00;;;25.10;51.80;;;;;;4980158;28;20480;-63
2022/10/28 14:55:00;;;;;;;8.80;7.60;;;25.10;51.80;;;;;;4979888;28;20047;-62
2022/10/28 14:57:30;;;;;;;10.18;8.70;;;25.10;51.80;;;;;;4979928;28;20058;-63
2022/10/28 15:00:03;;;;;;;12.77;8.88;;;25.10;51.90;;;;;;4979580;28;20058;-63
2022/10/28 15:02:34;;;;;;;10.35;8.77;;;25.00;51.90;;;;;;4962634;28;20054;-63
2022/10/28 15:05:19;;;;;;;10.52;8.55;;;25.00;51.90;;;;;;4979658;28;20065;-62
2022/10/28 15:07:47;;;;;;;10.05;7.85;;;25.00;51.90;;;;;;4978877;28;20054;-63
2022/10/28 15:10:25;;;;;;;11.27;8.35;;;25.00;51.90;;;;;;4979571;28;20061;-63
2022/10/28 15:12:54;;;;;;;9.57;8.57;;;24.90;51.90;;;;;;4979270;28;20042;-62
2022/10/28 15:15:30;;;;;;;9.30;8.15;;;24.90;52.00;;;;;;4979857;28;20051;-62
2022/10/28 15:17:59;;;;;;;11.07;9.00;;;24.90;52.00;;;;;;4979379;28;20046;-63
2022/10/28 15:20:33;;;;;;;11.63;8.00;;;24.90;52.00;;;;;;4978749;28;20070;-62
2022/10/28 15:23:15;;;;;;;8.98;8.02;;;24.90;52.10;;;;;;4979401;28;20047;-63
2022/10/28 15:25:43;;;;;;;9.65;8.50;;;24.90;52.10;;;;;;4978247;28;20066;-63
2022/10/28 15:28:11;;;;;;;11.43;7.47;;;24.80;52.10;;;;;;4979478;28;20057;-63
2022/10/28 15:30:41;;;;;;;9.40;8.00;;;24.80;52.10;;;;;;4979255;28;20055;-63
2022/10/28 15:33:35;;;;;;;10.65;8.48;;;24.80;52.10;;;;;;4977908;28;20059;-63
2022/10/28 15:36:19;;;;;;;9.48;7.80;;;24.80;52.10;;;;;;4978982;28;20055;-63
2022/10/28 15:39:03;;;;;;;10.02;8.13;;;24.70;52.10;;;;;;4979311;28;20451;-63
2022/10/28 15:41:43;;;;;;;10.70;8.10;;;24.70;52.20;;;;;;4978937;28;20482;-63
2022/10/28 15:44:29;;;;;;;11.48;7.85;;;24.70;52.20;;;;;;4978804;28;20046;-60
2022/10/28 15:46:57;;;;;;;9.13;7.43;;;24.70;52.30;;;;;;4978818;28;20051;-63
2022/10/28 15:49:32;;;;;;;10.52;8.43;;;24.70;52.30;;;;;;4978894;28;20066;-63
2022/10/28 15:52:21;;;;;;;8.88;7.97;;;24.60;52.40;;;;;;4977645;28;20051;-63
2022/10/28 15:54:59;;;;;;;9.52;8.55;;;24.60;52.40;;;;;;4977133;28;20051;-63
2022/10/28 15:57:29;;;;;;;10.52;7.88;;;24.60;52.40;;;;;;4978862;28;20066;-62
2022/10/28 16:00:20;;;;;;;8.02;7.18;;;24.60;52.40;;;;;;4978650;28;20519;-63
2022/10/28 16:02:59;;;;;;;8.43;7.63;;;24.50;52.40;;;;;;4978560;28;20475;-63
2022/10/28 16:05:44;;;;;;;11.45;8.20;;;24.50;52.40;;;;;;4979193;28;20149;-63
2022/10/28 16:08:19;;;;;;;7.75;6.95;;;24.50;52.50;;;;;;4978787;28;20054;-63
2022/10/28 16:10:53;;;;;;;9.25;7.75;;;24.50;52.50;;;;;;4978506;28;20051;-63
2022/10/28 16:13:29;;;;;;;8.35;7.45;;;24.50;52.60;;;;;;4978715;28;20070;-62
2022/10/28 16:16:03;;;;;;;8.30;7.43;;;24.40;52.60;;;;;;4978351;28;20129;-63
2022/10/28 16:18:34;;;;;;;12.30;8.05;;;24.40;52.60;;;;;;4977110;28;20050;-63
2022/10/28 16:21:03;;;;;;;8.57;7.45;;;24.40;52.70;;;;;;4978536;28;20054;-63
2022/10/28 16:23:37;;;;;;;8.30;7.30;;;24.30;52.60;;;;;;4978093;28;20138;-63
2022/10/28 16:26:04;;;;;;;9.52;7.82;;;24.30;52.70;;;;;;4978069;28;20496;-62
2022/10/28 16:28:31;;;;;;;8.55;7.38;;;24.30;52.80;;;;;;4978034;28;20046;-63
2022/10/28 16:31:00;;;;;;;8.68;7.75;;;24.30;52.80;;;;;;4977048;28;20466;-63
2022/10/28 16:33:36;;;;;;;8.13;7.32;;;24.30;52.80;;;;;;4978068;28;20054;-63
2022/10/28 16:36:03;;;;;;;9.95;8.20;;;24.30;52.80;;;;;;4978424;28;20599;-62
2022/10/28 16:38:31;;;;;;;9.10;7.45;;;24.30;52.90;;;;;;4977746;28;20043;-62
2022/10/28 16:40:59;;;;;;;7.97;7.20;;;24.30;52.90;;;;;;4978232;28;20077;-62
2022/10/28 16:43:28;;;;;;;9.70;8.07;;;24.20;52.90;;;;;;4978219;28;20057;-63
2022/10/28 16:45:58;;;;;;;9.40;7.53;;;24.20;52.90;;;;;;4978015;28;20051;-63
2022/10/28 16:48:28;;;;;;;9.20;7.60;;;24.20;53.00;;;;;;4978253;28;20084;-63
2022/10/28 16:50:59;;;;;;;8.55;7.68;;;24.20;53.00;;;;;;4977872;28;20061;-63
2022/10/28 16:53:26;;;;;;;9.40;7.47;;;24.10;53.00;;;;;;4976942;28;20399;-63
2022/10/28 16:55:57;;;;;;;8.25;6.97;;;24.20;53.00;;;;;;4977997;28;20073;-63
2022/10/28 16:58:26;;;;;;;7.85;7.13;;;24.10;53.00;;;;;;4978774;28;20078;-63
2022/10/28 17:00:54;;;;;;;10.13;8.02;;;24.10;53.10;;;;;;4977495;28;20554;-62
2022/10/28 17:03:22;;;;;;;8.35;7.10;;;24.10;53.00;;;;;;4978045;28;20509;-63
2022/10/28 17:05:49;;;;;;;8.00;7.20;;;24.10;53.10;;;;;;4977862;28;20059;-63
2022/10/28 17:08:16;;;;;;;8.00;7.20;;;24.10;53.10;;;;;;4977963;28;20050;-63
2022/10/28 17:11:03;;;;;;;9.50;7.85;;;24.10;53.10;;;;;;4977565;28;20081;-63